Wisetown, Illinois
Current Conditions -  °F | °C
As of 2:15 AM on Monday 24 Nov 2014 (Local Time) from K3LF Reporting Station
Heavy Rain Heavy Rain  
Wind Chill: 51°   Ceiling: 400
Heat Index: 51°   Visibility: 1.2mi
Dew Point: 50°   Wind: 0mph
Humidity: 96%   Direction: NA
Pressure: 29.16"   Gusts: NA
Location:  38.895°N, 89.397°W
Report Text: K3LF 240815Z AUTO 00000KT 1 1/4SM +RA BKN004 OVC008 11/10 A2916 RMK AO2 P0014 T01080102
Loading
Personal Weather Stations






























Interactive Weather Map New forecast layout! Learn more

10-Day Weather Forecast

Advertisements
Track Severe Weather on mobile